Time;durP1;ratioP1;P1;durP2;ratioP2;P2;SDS_P1;SDS_P2;PMS_P1;PMS_P2;Temp;Humidity;BMP_temperature;BMP_pressure;BME280_temperature;BME280_humidity;BME280_pressure;Samples;Min_cycle;Max_cycle;Signal;HPM_P1;HPM_P2
2022/07/23 00:00:20;;;;;;;8.45;5.82;;;23.00;99.90;;;;;;5054367;28;20237;-67
2022/07/23 00:02:46;;;;;;;8.43;5.50;;;22.90;99.90;;;;;;5058566;28;20198;-68
2022/07/23 00:05:13;;;;;;;10.50;6.88;;;22.90;99.90;;;;;;5068946;28;20194;-68
2022/07/23 00:07:40;;;;;;;8.93;5.93;;;22.80;99.90;;;;;;5065195;28;20210;-68
2022/07/23 00:10:08;;;;;;;8.55;5.75;;;22.80;99.90;;;;;;5059651;28;20214;-68
2022/07/23 00:12:35;;;;;;;8.55;5.78;;;22.70;99.90;;;;;;5063140;28;20717;-68
2022/07/23 00:15:04;;;;;;;8.52;5.47;;;22.70;99.90;;;;;;5063068;28;20271;-68
2022/07/23 00:17:31;;;;;;;8.82;6.38;;;22.60;99.90;;;;;;5066821;28;20237;-68
2022/07/23 00:19:58;;;;;;;7.88;5.38;;;22.60;99.90;;;;;;5057468;28;20221;-67
2022/07/23 00:22:25;;;;;;;5.93;5.30;;;22.60;99.90;;;;;;5062698;28;20212;-67
2022/07/23 00:24:51;;;;;;;8.10;5.47;;;22.60;99.90;;;;;;5064811;28;20202;-68
2022/07/23 00:27:38;;;;;;;10.80;5.70;;;22.50;99.90;;;;;;5066668;28;20251;-67
2022/07/23 00:30:05;;;;;;;9.10;5.82;;;22.40;99.90;;;;;;5062638;28;20225;-68
2022/07/23 00:32:32;;;;;;;8.38;6.05;;;22.40;99.90;;;;;;5062563;28;20226;-68
2022/07/23 00:35:26;;;;;;;8.20;5.60;;;22.40;99.90;;;;;;5057393;28;20202;-68
2022/07/23 00:37:53;;;;;;;8.40;5.82;;;22.30;99.90;;;;;;5058215;28;20666;-68
2022/07/23 00:40:20;;;;;;;9.98;5.78;;;22.20;99.90;;;;;;5059799;28;20214;-68
2022/07/23 00:42:47;;;;;;;7.18;5.72;;;22.10;99.90;;;;;;5060648;28;20194;-68
2022/07/23 00:45:14;;;;;;;7.45;5.60;;;22.10;99.90;;;;;;5061338;28;20225;-68
2022/07/23 00:47:41;;;;;;;9.32;5.82;;;22.10;99.90;;;;;;5060658;28;20228;-68
2022/07/23 00:50:09;;;;;;;7.63;5.60;;;22.00;99.90;;;;;;5063108;28;20222;-68
2022/07/23 00:52:37;;;;;;;10.52;5.72;;;22.00;99.90;;;;;;5063287;28;20224;-68
2022/07/23 00:55:05;;;;;;;7.47;5.25;;;22.00;99.90;;;;;;5059053;28;20910;-68
2022/07/23 00:57:34;;;;;;;8.50;5.70;;;22.00;99.90;;;;;;5066479;28;20194;-68
2022/07/23 01:00:01;;;;;;;10.00;6.18;;;22.00;99.90;;;;;;5064182;28;20261;-67
2022/07/23 01:02:28;;;;;;;6.60;5.47;;;21.90;99.90;;;;;;5056925;28;20225;-68
2022/07/23 01:04:55;;;;;;;8.68;5.35;;;21.80;99.90;;;;;;5063006;28;20227;-68
2022/07/23 01:07:23;;;;;;;6.55;5.57;;;21.80;99.90;;;;;;5068344;28;20202;-68
2022/07/23 01:09:51;;;;;;;7.47;5.22;;;22.00;99.90;;;;;;5057502;28;20201;-68
2022/07/23 01:12:18;;;;;;;9.70;6.00;;;22.00;99.90;;;;;;5055106;28;20202;-68
2022/07/23 01:14:45;;;;;;;8.43;6.38;;;22.00;99.90;;;;;;5061005;28;20582;-69
2022/07/23 01:17:11;;;;;;;8.20;5.70;;;22.00;99.90;;;;;;5065994;28;20201;-69
2022/07/23 01:19:38;;;;;;;10.88;5.95;;;21.90;99.90;;;;;;5062626;28;20198;-69
2022/07/23 01:22:05;;;;;;;11.40;6.45;;;21.70;99.90;;;;;;5060973;28;20733;-69
2022/07/23 01:24:32;;;;;;;8.00;6.13;;;21.40;99.90;;;;;;5064895;28;20647;-69
2022/07/23 01:26:58;;;;;;;10.65;6.50;;;21.20;99.90;;;;;;5060853;28;20194;-69
2022/07/23 01:29:25;;;;;;;8.85;6.57;;;21.00;99.90;;;;;;5056778;28;20213;-70
2022/07/23 01:31:52;;;;;;;10.70;6.27;;;20.80;99.90;;;;;;5060211;28;20218;-69
2022/07/23 01:34:18;;;;;;;9.70;6.50;;;20.70;99.90;;;;;;5058131;28;20712;-69
2022/07/23 01:36:45;;;;;;;9.17;6.67;;;20.50;99.90;;;;;;5052942;28;20190;-69
2022/07/23 01:39:12;;;;;;;9.67;6.80;;;20.40;99.90;;;;;;5061035;28;20443;-69
2022/07/23 01:41:39;;;;;;;8.93;7.07;;;20.40;99.90;;;;;;5061125;28;20269;-69
2022/07/23 01:44:05;;;;;;;9.83;6.70;;;20.40;99.90;;;;;;5061898;28;20202;-69
2022/07/23 01:46:32;;;;;;;9.10;6.70;;;20.40;99.90;;;;;;5063730;28;20205;-69
2022/07/23 01:48:59;;;;;;;9.87;7.27;;;20.40;99.90;;;;;;5066971;28;20201;-69
2022/07/23 01:51:26;;;;;;;9.13;6.47;;;20.40;99.90;;;;;;5055801;28;20215;-69
2022/07/23 01:53:53;;;;;;;8.23;6.20;;;20.40;99.90;;;;;;5061729;28;20213;-68
2022/07/23 01:56:20;;;;;;;9.27;7.13;;;20.40;99.90;;;;;;5061342;28;20198;-69
2022/07/23 01:58:49;;;;;;;8.97;6.70;;;20.40;99.90;;;;;;5061885;28;20199;-68
2022/07/23 02:01:16;;;;;;;12.43;7.03;;;20.30;99.90;;;;;;5054224;28;20214;-68
2022/07/23 02:03:42;;;;;;;10.53;7.00;;;20.30;99.90;;;;;;5066813;28;20202;-69
2022/07/23 02:06:09;;;;;;;8.13;6.23;;;20.30;99.90;;;;;;5063305;28;20298;-68
2022/07/23 02:08:36;;;;;;;10.40;6.57;;;20.20;99.90;;;;;;5057947;28;20218;-68
2022/07/23 02:11:02;;;;;;;9.40;6.87;;;20.20;99.90;;;;;;5061789;28;20214;-68
2022/07/23 02:13:29;;;;;;;10.07;6.70;;;20.20;99.90;;;;;;5066815;28;20222;-68
2022/07/23 02:16:00;;;;;;;8.23;6.60;;;20.10;99.90;;;;;;5067180;28;20669;-68
2022/07/23 02:18:27;;;;;;;9.27;6.80;;;20.10;99.90;;;;;;5067102;28;20210;-68
2022/07/23 02:20:53;;;;;;;10.33;7.00;;;20.20;99.90;;;;;;5062843;28;20214;-68
2022/07/23 02:23:20;;;;;;;10.13;7.10;;;20.20;99.90;;;;;;5067644;28;20225;-68
2022/07/23 02:25:48;;;;;;;11.03;6.80;;;20.20;99.90;;;;;;5064004;28;20206;-68
2022/07/23 02:28:14;;;;;;;8.37;6.47;;;20.20;99.90;;;;;;5063460;28;20194;-68
2022/07/23 02:30:41;;;;;;;10.50;6.93;;;20.20;99.90;;;;;;5061933;28;20218;-68
2022/07/23 02:33:08;;;;;;;11.53;7.00;;;20.30;99.90;;;;;;5066746;28;20214;-68
2022/07/23 02:35:35;;;;;;;9.53;6.63;;;20.40;99.90;;;;;;5066778;28;20198;-68
2022/07/23 02:38:02;;;;;;;10.10;6.83;;;20.30;99.90;;;;;;5067617;28;20197;-68
2022/07/23 02:40:28;;;;;;;9.37;6.97;;;20.30;99.90;;;;;;5063316;28;20218;-68
2022/07/23 02:42:55;;;;;;;10.43;7.00;;;20.30;99.90;;;;;;5064978;28;20198;-68
2022/07/23 02:45:22;;;;;;;8.20;6.23;;;20.30;99.90;;;;;;5068042;28;20583;-68
2022/07/23 02:47:48;;;;;;;11.00;7.50;;;20.20;99.90;;;;;;5068829;28;20670;-68
2022/07/23 02:50:15;;;;;;;11.57;7.10;;;20.20;99.90;;;;;;5063610;28;20689;-68
2022/07/23 02:52:42;;;;;;;9.10;7.50;;;20.20;99.90;;;;;;5067858;28;20212;-68
2022/07/23 02:55:08;;;;;;;9.47;7.00;;;20.30;99.90;;;;;;5067131;28;20195;-68
2022/07/23 02:57:35;;;;;;;9.60;7.30;;;20.20;99.90;;;;;;5067260;28;20194;-68
2022/07/23 03:00:04;;;;;;;9.73;7.30;;;20.20;99.90;;;;;;5063995;28;20218;-68
2022/07/23 03:02:31;;;;;;;10.97;7.70;;;20.20;99.90;;;;;;5064341;28;20197;-68
2022/07/23 03:04:58;;;;;;;9.43;7.40;;;20.20;99.90;;;;;;5060662;28;20201;-68
2022/07/23 03:07:24;;;;;;;9.63;7.00;;;20.20;99.90;;;;;;5070391;28;20213;-68
2022/07/23 03:09:51;;;;;;;9.60;7.40;;;20.20;99.90;;;;;;5061006;28;20213;-68
2022/07/23 03:12:18;;;;;;;9.67;6.90;;;20.20;99.90;;;;;;5061920;28;20198;-68
2022/07/23 03:14:44;;;;;;;9.80;6.73;;;20.10;99.90;;;;;;5067615;28;20222;-68
2022/07/23 03:17:11;;;;;;;10.33;6.77;;;20.10;99.90;;;;;;5063370;28;20206;-68
2022/07/23 03:19:38;;;;;;;12.90;7.17;;;20.10;99.90;;;;;;5060942;28;20198;-68
2022/07/23 03:22:05;;;;;;;9.40;6.53;;;20.10;99.90;;;;;;5062502;28;20205;-68
2022/07/23 03:27:17;;;;;;;10.20;6.20;;;20.10;99.90;;;;;;5063362;28;20205;-68
2022/07/23 03:29:43;;;;;;;9.47;6.63;;;20.10;99.90;;;;;;5066499;28;20198;-68
2022/07/23 03:32:10;;;;;;;9.17;6.13;;;20.20;99.90;;;;;;5060821;28;20697;-68
2022/07/23 03:34:37;;;;;;;12.23;6.67;;;20.20;99.90;;;;;;5063735;28;20217;-68
2022/07/23 03:37:04;;;;;;;8.47;6.83;;;20.30;99.90;;;;;;5069499;28;20186;-68
2022/07/23 03:39:31;;;;;;;9.57;6.43;;;20.30;99.90;;;;;;5063388;28;20227;-68
2022/07/23 03:41:58;;;;;;;9.47;6.43;;;20.30;99.90;;;;;;5058427;28;20218;-68
2022/07/23 03:44:25;;;;;;;7.27;5.77;;;20.20;99.90;;;;;;5067253;28;20217;-68
2022/07/23 03:46:52;;;;;;;8.23;6.53;;;20.20;99.90;;;;;;5065395;28;20198;-68
2022/07/23 03:49:19;;;;;;;10.80;6.70;;;20.10;99.90;;;;;;5056891;28;20195;-68
2022/07/23 03:51:46;;;;;;;9.80;6.77;;;20.20;99.90;;;;;;5065196;28;20220;-68
2022/07/23 03:54:13;;;;;;;8.73;6.20;;;20.20;99.90;;;;;;5063935;28;20242;-68
2022/07/23 03:56:40;;;;;;;9.77;6.40;;;20.20;99.90;;;;;;5058853;28;20210;-68
2022/07/23 03:59:06;;;;;;;9.37;6.00;;;20.20;99.90;;;;;;5063721;28;20202;-68
2022/07/23 04:01:33;;;;;;;9.07;6.40;;;20.20;99.90;;;;;;5067087;28;20698;-68
2022/07/23 04:04:00;;;;;;;9.30;7.07;;;20.20;99.90;;;;;;5068994;28;20202;-68
2022/07/23 04:06:27;;;;;;;9.47;6.77;;;20.10;99.90;;;;;;5062696;28;20198;-68
2022/07/23 04:08:53;;;;;;;10.30;7.47;;;20.00;99.90;;;;;;5065713;28;20191;-68
2022/07/23 04:11:20;;;;;;;8.50;6.63;;;20.00;99.90;;;;;;5064831;28;20218;-68
2022/07/23 04:13:47;;;;;;;10.23;7.00;;;19.80;99.90;;;;;;5067404;28;20222;-68
2022/07/23 04:16:14;;;;;;;9.87;6.83;;;19.80;99.90;;;;;;5066942;28;20200;-68
2022/07/23 04:18:40;;;;;;;11.20;7.90;;;19.70;99.90;;;;;;5064103;28;20241;-68
2022/07/23 04:21:07;;;;;;;14.63;7.80;;;19.60;99.90;;;;;;5062449;28;20210;-68
2022/07/23 04:23:34;;;;;;;10.53;7.67;;;19.60;99.90;;;;;;5066770;28;20201;-67
2022/07/23 04:26:00;;;;;;;10.90;7.43;;;19.70;99.90;;;;;;5058947;28;20221;-66
2022/07/23 04:28:27;;;;;;;10.47;7.33;;;19.70;99.90;;;;;;5064754;28;20194;-66
2022/07/23 04:30:57;;;;;;;10.77;7.50;;;19.70;99.90;;;;;;5064593;28;20222;-66
2022/07/23 04:33:24;;;;;;;10.13;7.07;;;19.80;99.90;;;;;;5054421;28;20221;-65
2022/07/23 04:35:50;;;;;;;10.80;7.60;;;19.90;99.90;;;;;;5063719;28;20190;-66
2022/07/23 04:38:19;;;;;;;10.23;7.70;;;19.90;99.90;;;;;;5062597;28;20291;-66
2022/07/23 04:40:45;;;;;;;10.77;7.97;;;20.00;99.90;;;;;;5057156;28;20707;-66
2022/07/23 04:43:12;;;;;;;13.60;7.63;;;20.20;99.90;;;;;;5063830;28;20190;-66
2022/07/23 04:45:39;;;;;;;10.43;7.27;;;20.30;99.90;;;;;;5060448;28;20199;-66
2022/07/23 04:48:06;;;;;;;11.27;7.87;;;20.40;99.90;;;;;;5061892;28;20659;-68
2022/07/23 04:50:33;;;;;;;10.37;7.80;;;20.60;99.90;;;;;;5066108;28;20225;-67
2022/07/23 04:52:59;;;;;;;11.25;7.60;;;20.70;99.90;;;;;;5067416;28;20205;-67
2022/07/23 04:55:26;;;;;;;12.50;7.83;;;20.80;99.90;;;;;;5061216;28;20194;-69
2022/07/23 04:57:53;;;;;;;10.50;8.20;;;20.70;99.90;;;;;;5062523;28;20195;-68
2022/07/23 05:00:19;;;;;;;13.07;8.03;;;20.60;99.90;;;;;;5060161;28;20218;-69
2022/07/23 05:02:46;;;;;;;12.43;7.87;;;20.60;99.90;;;;;;5065683;28;20199;-69
2022/07/23 05:05:13;;;;;;;10.82;7.70;;;20.70;99.90;;;;;;5059601;28;20206;-68
2022/07/23 05:07:39;;;;;;;11.03;8.40;;;20.70;99.90;;;;;;5062052;28;20217;-68
2022/07/23 05:10:06;;;;;;;12.50;8.32;;;20.80;99.90;;;;;;5061381;28;20214;-68
2022/07/23 05:12:33;;;;;;;14.35;8.57;;;20.90;99.90;;;;;;5059491;28;20651;-68
2022/07/23 05:15:00;;;;;;;13.25;8.45;;;20.70;99.90;;;;;;5063842;28;20214;-68
2022/07/23 05:17:26;;;;;;;11.45;8.52;;;20.80;99.90;;;;;;5064887;28;20232;-69
2022/07/23 05:19:53;;;;;;;10.75;7.97;;;21.00;99.90;;;;;;5063413;28;20654;-70
2022/07/23 05:22:26;;;;;;;10.95;7.95;;;21.00;99.90;;;;;;5053159;28;20198;-69
2022/07/23 05:24:52;;;;;;;11.30;8.00;;;21.10;99.90;;;;;;5065657;28;20199;-68
2022/07/23 05:27:19;;;;;;;12.25;8.27;;;21.20;99.90;;;;;;5059623;28;20198;-70
2022/07/23 05:29:46;;;;;;;10.80;8.15;;;21.20;99.90;;;;;;5065403;28;20201;-68
2022/07/23 05:32:13;;;;;;;11.68;8.20;;;21.20;99.90;;;;;;5058140;28;20677;-68
2022/07/23 05:34:39;;;;;;;11.55;8.18;;;21.20;99.90;;;;;;5060148;28;20283;-68
2022/07/23 05:37:06;;;;;;;10.90;8.10;;;21.20;99.90;;;;;;5059162;28;20197;-69
2022/07/23 05:39:33;;;;;;;11.15;7.72;;;21.10;99.90;;;;;;5064446;28;20194;-68
2022/07/23 05:41:59;;;;;;;10.45;7.40;;;21.10;99.90;;;;;;5064724;28;20217;-68
2022/07/23 05:44:27;;;;;;;9.50;7.25;;;21.20;99.90;;;;;;5056448;28;20688;-70
2022/07/23 05:47:00;;;;;;;12.98;8.40;;;21.50;99.90;;;;;;5062377;28;20662;-70
2022/07/23 05:49:27;;;;;;;10.45;7.90;;;21.70;99.90;;;;;;5055581;28;20229;-68
2022/07/23 05:51:53;;;;;;;10.80;7.90;;;21.90;99.90;;;;;;5060008;28;20226;-68
2022/07/23 05:54:20;;;;;;;9.75;7.70;;;22.00;99.90;;;;;;5060348;28;20579;-68
2022/07/23 05:56:46;;;;;;;11.48;7.57;;;22.00;99.90;;;;;;5059183;28;20198;-69
2022/07/23 05:59:14;;;;;;;9.68;7.82;;;22.10;99.90;;;;;;5063321;28;20197;-66
2022/07/23 06:01:41;;;;;;;11.13;7.30;;;22.20;99.90;;;;;;5060386;28;20226;-66
2022/07/23 06:04:08;;;;;;;9.98;7.55;;;22.30;99.90;;;;;;5059496;28;20208;-66
2022/07/23 06:06:35;;;;;;;8.52;7.10;;;22.40;99.90;;;;;;5064415;28;20202;-66
2022/07/23 06:09:02;;;;;;;11.68;7.25;;;22.60;99.90;;;;;;5065700;28;20198;-66
2022/07/23 06:11:29;;;;;;;10.60;8.05;;;22.80;99.90;;;;;;5061926;28;20268;-66
2022/07/23 06:13:56;;;;;;;9.98;7.13;;;23.00;99.90;;;;;;5057774;28;20214;-66
2022/07/23 06:16:23;;;;;;;11.30;7.47;;;23.00;99.90;;;;;;5063264;28;20194;-66
2022/07/23 06:18:49;;;;;;;10.18;6.88;;;22.90;99.90;;;;;;5064541;28;20690;-66
2022/07/23 06:21:16;;;;;;;10.57;7.35;;;23.00;99.90;;;;;;5060145;28;20221;-66
2022/07/23 06:24:03;;;;;;;11.07;7.10;;;22.90;99.90;;;;;;5061496;28;20284;-66
2022/07/23 06:26:30;;;;;;;10.73;6.88;;;23.10;99.90;;;;;;5064362;28;20201;-66
2022/07/23 06:28:56;;;;;;;9.38;6.90;;;23.10;99.90;;;;;;5061419;28;20198;-66
2022/07/23 06:31:24;;;;;;;9.27;6.85;;;23.10;99.90;;;;;;5065228;28;20214;-66
2022/07/23 06:33:50;;;;;;;9.00;6.60;;;23.20;99.90;;;;;;5066074;28;20706;-66
2022/07/23 06:36:17;;;;;;;11.85;6.70;;;23.30;99.90;;;;;;5064387;28;20646;-66
2022/07/23 06:38:44;;;;;;;9.05;6.03;;;23.40;99.90;;;;;;5064646;28;20194;-66
2022/07/23 06:41:11;;;;;;;9.88;6.55;;;23.50;99.90;;;;;;5064981;28;20214;-66
2022/07/23 06:43:38;;;;;;;9.20;6.55;;;23.60;99.90;;;;;;5058727;28;20198;-66
2022/07/23 06:46:05;;;;;;;8.45;6.63;;;23.80;99.90;;;;;;5058955;28;20677;-66
2022/07/23 06:48:34;;;;;;;10.77;6.80;;;23.80;99.90;;;;;;5059041;28;20264;-66
2022/07/23 06:51:01;;;;;;;9.85;7.10;;;23.90;99.90;;;;;;5062578;28;20219;-66
2022/07/23 06:53:28;;;;;;;7.75;6.45;;;23.80;99.90;;;;;;5055116;28;20198;-69
2022/07/23 06:55:54;;;;;;;8.40;6.68;;;23.80;99.90;;;;;;5058980;28;20588;-68
2022/07/23 06:58:21;;;;;;;8.38;6.45;;;23.90;99.90;;;;;;5068662;28;20190;-68
2022/07/23 07:00:48;;;;;;;8.75;6.40;;;24.00;99.90;;;;;;5064194;28;20211;-68
2022/07/23 07:03:17;;;;;;;9.13;6.25;;;23.90;99.90;;;;;;5066171;28;20200;-68
2022/07/23 07:05:44;;;;;;;9.40;7.05;;;24.10;99.90;;;;;;5065492;28;20190;-68
2022/07/23 07:08:10;;;;;;;7.63;5.97;;;24.20;99.90;;;;;;5068030;28;20203;-71
2022/07/23 07:10:37;;;;;;;7.82;6.28;;;24.70;99.90;;;;;;5064914;28;20224;-69
2022/07/23 07:13:04;;;;;;;9.55;6.40;;;25.50;99.90;;;;;;5066011;28;20235;-68
2022/07/23 07:15:30;;;;;;;7.75;5.75;;;25.80;99.90;;;;;;5064760;28;20221;-68
2022/07/23 07:17:57;;;;;;;7.20;5.40;;;26.10;99.90;;;;;;5064165;28;20198;-68
2022/07/23 07:20:24;;;;;;;7.90;6.00;;;26.60;99.90;;;;;;5061837;28;20226;-68
2022/07/23 07:22:51;;;;;;;7.63;6.03;;;27.10;99.90;;;;;;5068098;28;20294;-68
2022/07/23 07:25:17;;;;;;;7.53;5.50;;;27.60;99.90;;;;;;5064774;28;20197;-66
2022/07/23 07:27:44;;;;;;;9.30;5.75;;;28.10;99.90;;;;;;5070138;28;20202;-67
2022/07/23 07:30:12;;;;;;;6.93;5.72;;;28.20;99.90;;;;;;5062448;28;20221;-67
2022/07/23 07:32:39;;;;;;;6.53;5.20;;;28.00;99.90;;;;;;5063831;28;20195;-68
2022/07/23 07:35:24;;;;;;;7.95;5.40;;;28.20;99.90;;;;;;5065765;28;20230;-69
2022/07/23 07:37:51;;;;;;;9.18;5.25;;;28.30;99.90;;;;;;5068737;28;20562;-68
2022/07/23 07:40:19;;;;;;;7.38;5.07;;;28.50;99.90;;;;;;5063311;28;20221;-68
2022/07/23 07:42:52;;;;;;;7.97;4.88;;;28.40;99.90;;;;;;5069837;28;20190;-70
2022/07/23 07:45:24;;;;;;;7.78;5.22;;;28.20;99.90;;;;;;5062900;28;20206;-70
2022/07/23 07:47:52;;;;;;;6.65;5.05;;;28.40;99.90;;;;;;5067663;28;20214;-70
2022/07/23 07:50:20;;;;;;;6.95;5.45;;;28.70;99.90;;;;;;5064004;28;20222;-70
2022/07/23 07:52:47;;;;;;;8.35;5.40;;;28.80;99.90;;;;;;5061088;28;20277;-70
2022/07/23 07:55:14;;;;;;;8.10;5.93;;;29.10;99.90;;;;;;5062918;28;20744;-68
2022/07/23 07:57:42;;;;;;;8.32;6.32;;;28.10;99.90;;;;;;5059538;28;20202;-68
2022/07/23 08:00:15;;;;;;;7.25;5.68;;;26.90;99.90;;;;;;5070024;28;20895;-68
2022/07/23 08:02:50;;;;;;;7.40;5.90;;;26.80;99.90;;;;;;5060348;28;20646;-68
2022/07/23 08:05:22;;;;;;;10.77;6.43;;;27.10;99.90;;;;;;5064297;28;20222;-67
2022/07/23 08:07:55;;;;;;;8.57;5.65;;;27.40;99.90;;;;;;5057437;28;20571;-70
2022/07/23 08:10:21;;;;;;;8.55;5.78;;;27.00;99.90;;;;;;5067399;28;20224;-71
2022/07/23 08:12:51;;;;;;;7.30;6.15;;;26.90;99.90;;;;;;5063753;28;20203;-69
2022/07/23 08:15:19;;;;;;;7.72;6.05;;;26.90;99.90;;;;;;5069501;28;20632;-69
2022/07/23 08:17:46;;;;;;;8.75;6.22;;;26.70;99.90;;;;;;5066362;28;20475;-69
2022/07/23 08:20:15;;;;;;;7.15;6.07;;;26.80;99.90;;;;;;5062246;28;20236;-69
2022/07/23 08:22:51;;;;;;;9.18;6.00;;;27.20;99.90;;;;;;5067710;28;20388;-70
2022/07/23 08:25:29;;;;;;;7.18;5.55;;;27.30;99.90;;;;;;5059032;28;20545;-71
2022/07/23 08:27:57;;;;;;;7.22;5.35;;;27.40;99.90;;;;;;5065611;28;20217;-71
2022/07/23 08:30:24;;;;;;;5.90;5.10;;;27.50;99.90;;;;;;5064494;28;20223;-70
2022/07/23 08:33:00;;;;;;;7.43;5.35;;;27.50;99.90;;;;;;5065606;28;20224;-68
2022/07/23 08:35:32;;;;;;;5.88;5.13;;;27.60;99.90;;;;;;5065426;28;20218;-71
2022/07/23 08:38:03;;;;;;;7.15;5.32;;;27.70;99.90;;;;;;5070866;28;20212;-68
2022/07/23 08:40:35;;;;;;;10.40;5.63;;;27.90;99.90;;;;;;5061467;28;21523;-68
2022/07/23 08:43:10;;;;;;;10.40;5.80;;;27.90;99.90;;;;;;5066033;28;20193;-68
2022/07/23 08:45:43;;;;;;;7.00;5.50;;;28.00;99.90;;;;;;5066643;28;20194;-71
2022/07/23 08:48:13;;;;;;;6.35;5.25;;;28.00;99.90;;;;;;5062663;28;20208;-73
2022/07/23 08:50:44;;;;;;;7.18;5.53;;;28.20;99.90;;;;;;5064949;28;20948;-70
2022/07/23 08:53:10;;;;;;;5.80;5.20;;;28.30;99.90;;;;;;5065177;28;20199;-72
2022/07/23 08:55:37;;;;;;;7.60;5.35;;;28.50;99.90;;;;;;5063507;28;20221;-68
2022/07/23 08:58:04;;;;;;;8.95;5.40;;;28.60;99.90;;;;;;5064889;28;20190;-69
2022/07/23 09:00:33;;;;;;;6.22;5.43;;;28.60;99.90;;;;;;5063372;28;20214;-67
2022/07/23 09:02:59;;;;;;;8.10;5.05;;;28.70;99.90;;;;;;5067397;28;20607;-68
2022/07/23 09:05:26;;;;;;;6.22;4.95;;;28.80;99.90;;;;;;5064519;28;20207;-70
2022/07/23 09:08:12;;;;;;;6.38;4.90;;;28.90;99.90;;;;;;5062287;28;20209;-68
2022/07/23 09:10:49;;;;;;;5.80;4.57;;;28.50;99.90;;;;;;5064043;28;20617;-68
2022/07/23 09:13:31;;;;;;;5.00;4.00;;;28.50;99.90;;;;;;5063638;28;20202;-68
2022/07/23 09:16:01;;;;;;;6.25;4.25;;;28.20;99.90;;;;;;5065310;28;20213;-68
2022/07/23 09:18:41;;;;;;;6.63;3.92;;;27.90;99.90;;;;;;5060408;28;20216;-68
2022/07/23 09:21:30;;;;;;;5.10;4.60;;;27.70;99.90;;;;;;5066210;28;20213;-68
2022/07/23 09:24:07;;;;;;;5.55;4.40;;;27.70;99.90;;;;;;5061957;28;20573;-68
2022/07/23 09:26:55;;;;;;;4.80;4.25;;;27.60;99.90;;;;;;5067517;28;20199;-69
2022/07/23 09:29:24;;;;;;;8.23;4.90;;;27.60;99.90;;;;;;5063995;28;20194;-71
2022/07/23 09:31:59;;;;;;;5.22;4.50;;;27.60;99.90;;;;;;5064564;28;20213;-68
2022/07/23 09:34:28;;;;;;;10.63;4.60;;;27.90;99.90;;;;;;5060379;28;20205;-69
2022/07/23 09:36:57;;;;;;;7.25;4.22;;;28.00;99.90;;;;;;5064901;28;20814;-69
2022/07/23 09:39:28;;;;;;;5.70;4.50;;;28.20;99.90;;;;;;5061591;28;20198;-69
2022/07/23 09:41:54;;;;;;;5.13;4.32;;;27.80;99.90;;;;;;5059378;28;20712;-69
2022/07/23 09:44:22;;;;;;;7.30;4.38;;;27.70;99.90;;;;;;5064915;28;20654;-69
2022/07/23 09:46:59;;;;;;;6.05;4.65;;;28.20;99.90;;;;;;5054919;28;20185;-69
2022/07/23 09:49:26;;;;;;;5.95;4.50;;;28.70;99.90;;;;;;5063768;28;20221;-69
2022/07/23 09:51:58;;;;;;;6.38;4.75;;;29.40;99.90;;;;;;5058933;28;20214;-69
2022/07/23 09:54:38;;;;;;;5.70;4.20;;;29.00;99.90;;;;;;5060384;28;20204;-69
2022/07/23 09:57:14;;;;;;;5.35;4.15;;;29.10;99.90;;;;;;5065597;28;20194;-67
2022/07/23 09:59:43;;;;;;;6.63;4.80;;;29.60;99.90;;;;;;5057106;28;20202;-69
2022/07/23 10:02:12;;;;;;;6.60;5.28;;;29.70;99.90;;;;;;5059120;28;20195;-65
2022/07/23 10:04:39;;;;;;;6.60;5.90;;;28.80;99.90;;;;;;5054495;28;20199;-66
2022/07/23 10:07:08;;;;;;;7.45;5.57;;;28.00;99.90;;;;;;5058563;28;20194;-66
2022/07/23 10:09:40;;;;;;;9.77;5.63;;;28.00;99.90;;;;;;5053345;28;20204;-68
2022/07/23 10:14:46;;;;;;;7.55;5.90;;;28.20;99.90;;;;;;5055500;28;20865;-69
2022/07/23 10:17:13;;;;;;;8.80;5.63;;;28.40;99.90;;;;;;5063086;28;20226;-69
2022/07/23 10:19:40;;;;;;;6.80;5.28;;;28.50;99.90;;;;;;5065520;28;20222;-70
2022/07/23 10:22:18;;;;;;;8.85;5.60;;;28.60;99.90;;;;;;5054644;28;20206;-69
2022/07/23 10:25:22;;;;;;;8.85;5.35;;;28.60;99.90;;;;;;5049453;28;20241;-69
2022/07/23 10:28:09;;;;;;;5.78;5.00;;;28.70;99.90;;;;;;5052004;28;20198;-68
2022/07/23 10:30:41;;;;;;;7.32;5.60;;;28.20;99.90;;;;;;5059911;28;20240;-70
2022/07/23 10:33:32;;;;;;;6.07;5.07;;;27.90;99.90;;;;;;5063703;28;20190;-71
2022/07/23 10:36:24;;;;;;;7.95;5.22;;;28.10;99.90;;;;;;5060669;28;20218;-69
2022/07/23 10:39:05;;;;;;;6.28;5.38;;;27.80;99.90;;;;;;5063299;28;20195;-70
2022/07/23 10:41:38;;;;;;;6.10;5.10;;;28.10;99.90;;;;;;5062794;28;20305;-68
2022/07/23 10:44:16;;;;;;;6.63;5.15;;;28.30;99.90;;;;;;5060532;28;20190;-68
2022/07/23 10:47:39;;;;;;;6.55;5.15;;;28.50;99.90;;;;;;5053077;28;20191;-71
2022/07/23 10:49:44;;;;;;;7.15;5.47;;;28.40;99.90;;;;;;5050752;28;20198;-70
2022/07/23 10:52:13;;;;;;;7.00;5.25;;;27.90;99.90;;;;;;5072044;28;20291;-71
2022/07/23 10:54:46;;;;;;;8.00;5.38;;;27.90;99.90;;;;;;5065679;28;20197;-71
2022/07/23 10:57:14;;;;;;;7.13;5.53;;;28.10;99.90;;;;;;5057123;28;20281;-70
2022/07/23 11:02:31;;;;;;;5.57;5.03;;;29.10;99.90;;;;;;5058945;28;20223;-70
2022/07/23 11:05:24;;;;;;;6.55;5.10;;;28.90;99.90;;;;;;5061789;28;20206;-69
2022/07/23 11:08:03;;;;;;;5.22;4.63;;;29.00;99.90;;;;;;5057185;28;20205;-70
2022/07/23 11:10:42;;;;;;;6.75;5.00;;;29.30;99.90;;;;;;5054992;28;20214;-70
2022/07/23 11:13:21;;;;;;;5.93;4.85;;;29.40;99.90;;;;;;5057276;28;20213;-70
2022/07/23 11:16:10;;;;;;;6.53;4.90;;;29.10;99.90;;;;;;5056989;28;20215;-70
2022/07/23 11:18:40;;;;;;;5.70;4.75;;;29.00;99.90;;;;;;5059305;28;20194;-72
2022/07/23 11:21:28;;;;;;;6.22;4.78;;;29.20;99.90;;;;;;5052094;28;20218;-72
2022/07/23 11:24:10;;;;;;;6.63;5.60;;;29.50;99.90;;;;;;5053866;28;20538;-71
2022/07/23 11:26:37;;;;;;;5.63;4.68;;;29.90;99.90;;;;;;5055125;28;20198;-73
2022/07/23 11:29:30;;;;;;;6.68;4.75;;;29.60;99.90;;;;;;5051337;28;20194;-70
2022/07/23 11:32:02;;;;;;;5.68;4.88;;;30.00;99.90;;;;;;5054735;28;20230;-72
2022/07/23 11:34:32;;;;;;;6.50;4.90;;;30.70;99.90;;;;;;5052193;28;20225;-71
2022/07/23 11:37:00;;;;;;;5.20;4.65;;;31.20;99.90;;;;;;5048575;28;20229;-70
2022/07/23 11:39:28;;;;;;;7.35;5.38;;;31.40;99.90;;;;;;5054403;28;20203;-70
2022/07/23 11:41:57;;;;;;;6.78;4.68;;;31.50;99.90;;;;;;5049243;28;20218;-71
2022/07/23 11:44:28;;;;;;;5.85;5.10;;;31.80;99.90;;;;;;5056903;28;20202;-71
2022/07/23 11:47:21;;;;;;;6.32;5.55;;;32.40;99.90;;;;;;5054572;28;20202;-72
2022/07/23 11:49:55;;;;;;;7.13;5.50;;;32.30;99.90;;;;;;5055108;28;20273;-72
2022/07/23 11:52:22;;;;;;;6.20;5.20;;;32.10;99.90;;;;;;5060229;28;20688;-72
2022/07/23 11:55:01;;;;;;;5.57;4.97;;;32.40;99.90;;;;;;5050266;28;20599;-70
2022/07/23 11:57:30;;;;;;;6.28;4.85;;;32.60;99.90;;;;;;5057398;28;20190;-71
2022/07/23 12:00:17;;;;;;;6.15;4.93;;;32.70;99.90;;;;;;5045087;28;20199;-71
2022/07/23 12:02:50;;;;;;;5.20;4.70;;;32.50;99.40;;;;;;5049326;28;20245;-71
2022/07/23 12:05:19;;;;;;;6.30;4.85;;;32.00;99.60;;;;;;5049781;28;20906;-70
2022/07/23 12:07:51;;;;;;;6.00;4.70;;;31.80;99.90;;;;;;5049008;28;20190;-70
2022/07/23 12:10:20;;;;;;;5.22;4.72;;;31.50;99.70;;;;;;5043940;28;20233;-72
2022/07/23 12:12:52;;;;;;;5.97;5.15;;;31.40;99.90;;;;;;5045856;28;20209;-70
2022/07/23 12:15:22;;;;;;;5.47;4.60;;;31.50;99.90;;;;;;5053160;28;20218;-69
2022/07/23 12:17:50;;;;;;;5.82;4.90;;;31.90;99.90;;;;;;5053802;28;20202;-69
2022/07/23 12:20:26;;;;;;;5.25;4.65;;;31.80;99.80;;;;;;5064272;28;20210;-68
2022/07/23 12:22:59;;;;;;;6.15;4.65;;;32.20;99.90;;;;;;5063572;28;20209;-69
2022/07/23 12:25:31;;;;;;;6.97;5.05;;;32.10;99.60;;;;;;5061749;28;20646;-68
2022/07/23 12:28:07;;;;;;;5.85;4.65;;;31.40;99.90;;;;;;5064555;28;20190;-70
2022/07/23 12:30:43;;;;;;;6.55;5.07;;;31.20;99.90;;;;;;5062567;28;20537;-68
2022/07/23 12:33:21;;;;;;;5.80;5.10;;;31.10;99.90;;;;;;5061814;28;20190;-70
2022/07/23 12:35:49;;;;;;;5.85;5.22;;;30.60;99.90;;;;;;5058291;28;20304;-67
2022/07/23 12:38:20;;;;;;;6.28;5.10;;;30.90;99.90;;;;;;5054864;28;20210;-68
2022/07/23 12:40:53;;;;;;;8.63;5.68;;;30.60;99.90;;;;;;5060225;28;20213;-68
2022/07/23 12:43:29;;;;;;;6.68;5.05;;;30.80;99.90;;;;;;5059622;28;20194;-67
2022/07/23 12:45:56;;;;;;;5.30;4.80;;;30.90;99.90;;;;;;5057960;28;20206;-66
2022/07/23 12:48:46;;;;;;;8.45;5.15;;;31.20;99.90;;;;;;5052142;28;20293;-66
2022/07/23 12:51:21;;;;;;;8.20;5.38;;;31.40;99.90;;;;;;5053366;28;20218;-68
2022/07/23 12:53:54;;;;;;;5.95;5.38;;;31.60;99.90;;;;;;5057045;28;20676;-67
2022/07/23 12:56:32;;;;;;;7.38;5.18;;;31.80;99.40;;;;;;5052011;28;20214;-68
2022/07/23 12:59:10;;;;;;;5.93;4.95;;;31.80;99.40;;;;;;5051859;28;20205;-68
2022/07/23 13:02:02;;;;;;;6.18;5.40;;;31.80;99.50;;;;;;5053366;28;20213;-70
2022/07/23 13:04:31;;;;;;;5.70;5.10;;;32.30;99.40;;;;;;5054005;28;20373;-68